Time;durP1;ratioP1;P1;durP2;ratioP2;P2;SDS_P1;SDS_P2;PMS_P1;PMS_P2;Temp;Humidity;BMP_temperature;BMP_pressure;BME280_temperature;BME280_humidity;BME280_pressure;Samples;Min_cycle;Max_cycle;Signal;HPM_P1;HPM_P2
2022/07/11 00:01:13;;;;;;;;;;;20.10;99.90;;;;;;4592201;19;19933;-33
2022/07/11 00:02:44;;;;;;;;;;;20.10;99.90;;;;;;4591940;19;19911;-33
2022/07/11 00:04:15;;;;;;;;;;;20.10;99.90;;;;;;4592281;19;19933;-32
2022/07/11 00:05:46;;;;;;;;;;;20.10;99.90;;;;;;4592347;19;20311;-33
2022/07/11 00:07:17;;;;;;;;;;;20.10;99.90;;;;;;4592647;19;19911;-32
2022/07/11 00:08:48;;;;;;;;;;;20.20;99.90;;;;;;4592276;19;19915;-31
2022/07/11 00:10:19;;;;;;;;;;;20.20;99.90;;;;;;4591853;19;19921;-31
2022/07/11 00:11:50;;;;;;;;;;;20.20;99.90;;;;;;4591137;19;19914;-32
2022/07/11 00:13:21;;;;;;;;;;;20.20;99.90;;;;;;4592024;19;19918;-32
2022/07/11 00:14:55;;;;;;;;;;;20.20;99.90;;;;;;4592551;19;19918;-32
2022/07/11 00:16:26;;;;;;;;;;;20.20;99.90;;;;;;4591300;19;20301;-32
2022/07/11 00:17:57;;;;;;;;;;;20.20;99.90;;;;;;4591602;19;19914;-32
2022/07/11 00:19:28;;;;;;;;;;;20.20;99.90;;;;;;4591066;19;19914;-32
2022/07/11 00:20:58;;;;;;;;;;;20.20;99.90;;;;;;4591427;19;19925;-32
2022/07/11 00:22:30;;;;;;;;;;;20.10;99.90;;;;;;4591820;19;20264;-32
2022/07/11 00:24:01;;;;;;;;;;;20.10;99.90;;;;;;4591791;19;19915;-32
2022/07/11 00:25:31;;;;;;;;;;;20.20;99.90;;;;;;4592287;19;20333;-32
2022/07/11 00:27:03;;;;;;;;;;;20.10;99.90;;;;;;4591516;19;19925;-32
2022/07/11 00:28:34;;;;;;;;;;;20.20;99.90;;;;;;4591847;19;19935;-32
2022/07/11 00:30:05;;;;;;;;;;;20.20;99.90;;;;;;4591773;19;20333;-32
2022/07/11 00:31:36;;;;;;;;;;;20.10;99.90;;;;;;4591594;19;19922;-32
2022/07/11 00:33:07;;;;;;;;;;;20.20;99.90;;;;;;4591488;19;19915;-32
2022/07/11 00:34:38;;;;;;;;;;;20.20;99.90;;;;;;4591821;19;19929;-32
2022/07/11 00:36:09;;;;;;;;;;;20.20;99.90;;;;;;4592281;19;19915;-32
2022/07/11 00:37:40;;;;;;;;;;;20.20;99.90;;;;;;4591706;19;19920;-33
2022/07/11 00:39:11;;;;;;;;;;;20.10;99.90;;;;;;4591350;19;19947;-32
2022/07/11 00:40:42;;;;;;;;;;;20.20;99.90;;;;;;4591825;19;19922;-32
2022/07/11 00:42:16;;;;;;;;;;;20.20;99.90;;;;;;4591960;19;20379;-32
2022/07/11 00:43:53;;;;;;;;;;;20.20;99.90;;;;;;4591625;19;19921;-32
2022/07/11 00:45:24;;;;;;;;;;;20.20;99.90;;;;;;4590007;19;19942;-32
2022/07/11 00:46:55;;;;;;;;;;;20.10;99.90;;;;;;4591667;19;19915;-32
2022/07/11 00:48:26;;;;;;;;;;;20.20;99.90;;;;;;4590841;19;19922;-31
2022/07/11 00:49:57;;;;;;;;;;;20.20;99.90;;;;;;4591178;19;19914;-32
2022/07/11 00:51:29;;;;;;;;;;;20.20;99.90;;;;;;4589809;19;19911;-32
2022/07/11 00:53:00;;;;;;;;;;;20.20;99.90;;;;;;4591117;19;19915;-32
2022/07/11 00:54:31;;;;;;;;;;;20.20;99.90;;;;;;4590975;19;19921;-32
2022/07/11 00:56:02;;;;;;;;;;;20.20;99.90;;;;;;4589947;19;20349;-32
2022/07/11 00:57:33;;;;;;;;;;;20.20;99.90;;;;;;4590829;19;19910;-32
2022/07/11 00:59:04;;;;;;;;;;;20.20;99.90;;;;;;4591167;19;19919;-32
2022/07/11 01:00:35;;;;;;;;;;;20.20;99.90;;;;;;4591478;19;19962;-32
2022/07/11 01:02:07;;;;;;;;;;;20.20;99.90;;;;;;4589461;19;19919;-32
2022/07/11 01:03:39;;;;;;;;;;;20.20;99.90;;;;;;4590102;19;20369;-32
2022/07/11 01:05:11;;;;;;;;;;;20.20;99.90;;;;;;4591572;19;19923;-32
2022/07/11 01:06:41;;;;;;;;;;;20.10;99.90;;;;;;4590855;19;19915;-33
2022/07/11 01:08:12;;;;;;;;;;;20.20;99.90;;;;;;4591124;19;19915;-31
2022/07/11 01:09:43;;;;;;;;;;;20.20;99.90;;;;;;4591022;19;19919;-31
2022/07/11 01:11:18;;;;;;;;;;;20.30;99.90;;;;;;4589836;19;19919;-32
2022/07/11 01:12:50;;;;;;;;;;;20.20;99.90;;;;;;4590493;19;20307;-32
2022/07/11 01:14:20;;;;;;;;;;;20.20;99.90;;;;;;4591202;19;19922;-33
2022/07/11 01:16:05;;;;;;;;;;;20.20;99.90;;;;;;4590876;19;19918;-32
2022/07/11 01:17:36;;;;;;;;;;;20.30;99.90;;;;;;4591012;19;19922;-32
2022/07/11 01:19:07;;;;;;;;;;;20.20;99.90;;;;;;4590610;19;19914;-32
2022/07/11 01:20:38;;;;;;;;;;;20.20;99.90;;;;;;4590979;19;19911;-33
2022/07/11 01:22:09;;;;;;;;;;;20.20;99.90;;;;;;4590847;19;19943;-32
2022/07/11 01:23:40;;;;;;;;;;;20.20;99.90;;;;;;4591011;19;19919;-32
2022/07/11 01:25:29;;;;;;;;;;;20.20;99.90;;;;;;4590643;19;20253;-33
2022/07/11 01:27:01;;;;;;;;;;;20.20;99.90;;;;;;4589576;19;19911;-33
2022/07/11 01:28:32;;;;;;;;;;;20.20;99.90;;;;;;4589583;19;19919;-33
2022/07/11 01:30:04;;;;;;;;;;;20.20;99.90;;;;;;4590650;19;19939;-32
2022/07/11 01:31:37;;;;;;;;;;;20.20;99.90;;;;;;4589689;19;19915;-32
2022/07/11 01:33:08;;;;;;;;;;;20.20;99.90;;;;;;4590499;19;20265;-32
2022/07/11 01:34:39;;;;;;;;;;;20.20;99.90;;;;;;4590942;19;19919;-32
2022/07/11 01:36:10;;;;;;;;;;;20.20;99.90;;;;;;4590696;19;19936;-33
2022/07/11 01:37:41;;;;;;;;;;;20.20;99.90;;;;;;4590482;19;19915;-33
2022/07/11 01:39:12;;;;;;;;;;;20.20;99.90;;;;;;4590400;19;20321;-33
2022/07/11 01:40:43;;;;;;;;;;;20.20;99.90;;;;;;4590120;19;19986;-33
2022/07/11 01:42:14;;;;;;;;;;;20.20;99.90;;;;;;4590202;19;19988;-33
2022/07/11 01:43:45;;;;;;;;;;;20.10;99.90;;;;;;4590224;19;20321;-32
2022/07/11 01:45:16;;;;;;;;;;;20.10;99.90;;;;;;4589019;19;19915;-31
2022/07/11 01:46:48;;;;;;;;;;;20.20;99.90;;;;;;4590345;19;20069;-32
2022/07/11 01:48:19;;;;;;;;;;;20.20;99.90;;;;;;4590511;19;19922;-32
2022/07/11 01:49:50;;;;;;;;;;;20.20;99.90;;;;;;4590344;19;19922;-32
2022/07/11 01:51:22;;;;;;;;;;;20.10;99.90;;;;;;4590339;19;19922;-33
2022/07/11 01:52:53;;;;;;;;;;;20.10;99.90;;;;;;4589561;19;19926;-31
2022/07/11 01:54:24;;;;;;;;;;;20.20;99.90;;;;;;4589064;19;20270;-32
2022/07/11 01:55:55;;;;;;;;;;;20.10;99.90;;;;;;4590440;19;19921;-31
2022/07/11 01:57:26;;;;;;;;;;;20.10;99.90;;;;;;4590609;19;19915;-31
2022/07/11 01:58:57;;;;;;;;;;;20.10;99.90;;;;;;4591020;19;20325;-32
2022/07/11 02:00:28;;;;;;;;;;;20.10;99.90;;;;;;4588621;19;19919;-32
2022/07/11 02:01:59;;;;;;;;;;;20.10;99.90;;;;;;4590081;19;19914;-31
2022/07/11 02:03:30;;;;;;;;;;;20.10;99.90;;;;;;4590284;19;20246;-32
2022/07/11 02:05:01;;;;;;;;;;;20.10;99.90;;;;;;4589708;19;19938;-32
2022/07/11 02:06:33;;;;;;;;;;;20.10;99.90;;;;;;4590225;19;19919;-32
2022/07/11 02:08:13;;;;;;;;;;;20.10;99.90;;;;;;4590380;19;19937;-32
2022/07/11 02:09:44;;;;;;;;;;;20.10;99.90;;;;;;4589891;19;19918;-32
2022/07/11 02:11:16;;;;;;;;;;;20.10;99.90;;;;;;4589493;19;19915;-31
2022/07/11 02:12:47;;;;;;;;;;;20.10;99.90;;;;;;4589789;19;19938;-33
2022/07/11 02:14:18;;;;;;;;;;;20.10;99.90;;;;;;4590176;19;19911;-32
2022/07/11 02:15:53;;;;;;;;;;;20.10;99.90;;;;;;4594912;19;19935;-32
2022/07/11 02:17:23;;;;;;;;;;;20.10;99.90;;;;;;4594170;19;19919;-33
2022/07/11 02:18:55;;;;;;;;;;;20.10;99.90;;;;;;4594036;19;20253;-32
2022/07/11 02:20:26;;;;;;;;;;;20.00;99.90;;;;;;4594812;19;19992;-32
2022/07/11 02:21:57;;;;;;;;;;;20.10;99.90;;;;;;4594463;19;19919;-32
2022/07/11 02:23:28;;;;;;;;;;;20.10;99.90;;;;;;4594392;19;19914;-32
2022/07/11 02:24:59;;;;;;;;;;;20.00;99.90;;;;;;4594504;19;19971;-32
2022/07/11 02:26:30;;;;;;;;;;;20.00;99.90;;;;;;4594643;19;19926;-32
2022/07/11 02:28:01;;;;;;;;;;;20.00;99.90;;;;;;4594343;19;19922;-31
2022/07/11 02:29:32;;;;;;;;;;;20.00;99.90;;;;;;4593858;19;20241;-32
2022/07/11 02:31:03;;;;;;;;;;;20.00;99.90;;;;;;4593877;19;19925;-32
2022/07/11 02:32:34;;;;;;;;;;;20.00;99.90;;;;;;4593397;19;19922;-31
2022/07/11 02:34:05;;;;;;;;;;;20.00;99.90;;;;;;4593293;19;20306;-32
2022/07/11 02:35:37;;;;;;;;;;;20.00;99.90;;;;;;4594244;19;19914;-32
2022/07/11 02:37:08;;;;;;;;;;;20.00;99.90;;;;;;4594375;19;19917;-33
2022/07/11 02:38:39;;;;;;;;;;;20.00;99.90;;;;;;4594526;19;19966;-32
2022/07/11 02:40:10;;;;;;;;;;;20.00;99.90;;;;;;4593873;19;19918;-32
2022/07/11 02:41:41;;;;;;;;;;;20.00;99.90;;;;;;4592597;19;19929;-32
2022/07/11 02:43:13;;;;;;;;;;;20.00;99.90;;;;;;4593388;19;20245;-33
2022/07/11 02:44:45;;;;;;;;;;;20.00;99.90;;;;;;4592933;19;20325;-33
2022/07/11 02:46:15;;;;;;;;;;;20.00;99.90;;;;;;4593834;19;19938;-32
2022/07/11 02:47:46;;;;;;;;;;;20.00;99.90;;;;;;4594129;19;19918;-32
2022/07/11 02:49:18;;;;;;;;;;;20.00;99.90;;;;;;4594143;19;19915;-33
2022/07/11 02:50:49;;;;;;;;;;;20.00;99.90;;;;;;4593729;19;20233;-32
2022/07/11 02:52:20;;;;;;;;;;;20.00;99.90;;;;;;4592162;19;19946;-32
2022/07/11 02:53:52;;;;;;;;;;;20.00;99.90;;;;;;4594295;19;20361;-32
2022/07/11 02:55:24;;;;;;;;;;;20.00;99.90;;;;;;4592359;19;19926;-31
2022/07/11 02:56:56;;;;;;;;;;;20.00;99.90;;;;;;4592871;19;20256;-32
2022/07/11 02:58:27;;;;;;;;;;;20.00;99.90;;;;;;4593449;19;19926;-34
2022/07/11 02:59:58;;;;;;;;;;;20.00;99.90;;;;;;4594204;19;19915;-32
2022/07/11 03:01:29;;;;;;;;;;;20.00;99.90;;;;;;4593671;19;19926;-32
2022/07/11 03:03:01;;;;;;;;;;;20.00;99.90;;;;;;4593282;19;19915;-32
2022/07/11 03:04:32;;;;;;;;;;;20.00;99.90;;;;;;4593428;19;19978;-31
2022/07/11 03:06:03;;;;;;;;;;;20.00;99.90;;;;;;4593915;19;19914;-32
2022/07/11 03:07:35;;;;;;;;;;;20.00;99.90;;;;;;4593588;19;19915;-32
2022/07/11 03:09:06;;;;;;;;;;;20.00;99.90;;;;;;4593382;19;19919;-32
2022/07/11 03:10:37;;;;;;;;;;;20.00;99.90;;;;;;4593421;19;20321;-33
2022/07/11 03:12:08;;;;;;;;;;;20.00;99.90;;;;;;4592425;19;19925;-32
2022/07/11 03:13:39;;;;;;;;;;;20.00;99.90;;;;;;4592959;19;19917;-31
2022/07/11 03:15:10;;;;;;;;;;;20.00;99.90;;;;;;4592167;19;19915;-32
2022/07/11 03:16:41;;;;;;;;;;;20.00;99.90;;;;;;4592022;19;19917;-31
2022/07/11 03:18:12;;;;;;;;;;;20.00;99.90;;;;;;4592877;19;19922;-32
2022/07/11 03:19:43;;;;;;;;;;;20.00;99.90;;;;;;4593119;19;19994;-32
2022/07/11 03:21:14;;;;;;;;;;;20.00;99.90;;;;;;4593365;19;20380;-32
2022/07/11 03:22:45;;;;;;;;;;;20.00;99.90;;;;;;4593347;19;19918;-32
2022/07/11 03:24:17;;;;;;;;;;;20.00;99.90;;;;;;4592432;19;19933;-31
2022/07/11 03:25:48;;;;;;;;;;;20.00;99.90;;;;;;4592289;19;20320;-31
2022/07/11 03:27:20;;;;;;;;;;;20.00;99.90;;;;;;4592681;19;19925;-32
2022/07/11 03:28:51;;;;;;;;;;;20.00;99.90;;;;;;4590746;19;19919;-32
2022/07/11 03:30:22;;;;;;;;;;;20.00;99.90;;;;;;4592660;19;20285;-33
2022/07/11 03:31:54;;;;;;;;;;;20.00;99.90;;;;;;4591896;19;19926;-32
2022/07/11 03:33:25;;;;;;;;;;;20.00;99.90;;;;;;4592898;19;20335;-32
2022/07/11 03:36:48;;;;;;;;;;;20.00;99.90;;;;;;4592607;19;20268;-31
2022/07/11 03:38:19;;;;;;;;;;;20.00;99.90;;;;;;4590264;19;20003;-33
2022/07/11 03:39:50;;;;;;;;;;;20.00;99.90;;;;;;4591650;19;20339;-32
2022/07/11 03:41:21;;;;;;;;;;;20.00;99.90;;;;;;4593242;19;19942;-33
2022/07/11 03:42:52;;;;;;;;;;;20.00;99.90;;;;;;4592246;19;19925;-33
2022/07/11 03:44:24;;;;;;;;;;;20.00;99.90;;;;;;4591657;19;19940;-32
2022/07/11 03:45:55;;;;;;;;;;;20.00;99.90;;;;;;4591505;19;19914;-32
2022/07/11 03:47:26;;;;;;;;;;;20.00;99.90;;;;;;4591874;19;20265;-31
2022/07/11 03:48:58;;;;;;;;;;;20.00;99.90;;;;;;4592178;19;19919;-31
2022/07/11 03:50:29;;;;;;;;;;;20.00;99.90;;;;;;4591180;19;19935;-33
2022/07/11 03:52:00;;;;;;;;;;;20.00;99.90;;;;;;4591581;19;20320;-32
2022/07/11 03:53:31;;;;;;;;;;;20.00;99.90;;;;;;4592971;19;19918;-32
2022/07/11 03:55:02;;;;;;;;;;;20.00;99.90;;;;;;4591307;19;19930;-32
2022/07/11 03:56:33;;;;;;;;;;;20.00;99.90;;;;;;4592827;19;20393;-32
2022/07/11 03:58:04;;;;;;;;;;;20.00;99.90;;;;;;4592511;19;19929;-32
2022/07/11 03:59:35;;;;;;;;;;;20.00;99.90;;;;;;4591793;19;19919;-31
2022/07/11 04:01:06;;;;;;;;;;;20.00;99.90;;;;;;4592443;19;19919;-31
2022/07/11 04:02:38;;;;;;;;;;;20.00;99.90;;;;;;4592677;19;19929;-32
2022/07/11 04:04:08;;;;;;;;;;;20.00;99.90;;;;;;4592183;19;19993;-32
2022/07/11 04:05:39;;;;;;;;;;;20.00;99.90;;;;;;4591948;19;19927;-33
2022/07/11 04:07:10;;;;;;;;;;;20.00;99.90;;;;;;4592489;19;19915;-32
2022/07/11 04:08:41;;;;;;;;;;;20.00;99.90;;;;;;4592280;19;19918;-32
2022/07/11 04:10:13;;;;;;;;;;;19.90;99.90;;;;;;4592544;19;19926;-32
2022/07/11 04:11:44;;;;;;;;;;;20.00;99.90;;;;;;4591393;19;19919;-32
2022/07/11 04:13:14;;;;;;;;;;;20.00;99.90;;;;;;4592100;19;19915;-32
2022/07/11 04:14:46;;;;;;;;;;;20.00;99.90;;;;;;4591834;19;19918;-32
2022/07/11 04:16:17;;;;;;;;;;;19.90;99.90;;;;;;4591673;19;20230;-32
2022/07/11 04:17:48;;;;;;;;;;;20.00;99.90;;;;;;4592031;19;19926;-32
2022/07/11 04:19:19;;;;;;;;;;;20.00;99.90;;;;;;4592380;19;19907;-31
2022/07/11 04:20:50;;;;;;;;;;;20.00;99.90;;;;;;4592720;19;19911;-33
2022/07/11 04:22:21;;;;;;;;;;;19.90;99.90;;;;;;4591751;19;19986;-32
2022/07/11 04:23:52;;;;;;;;;;;20.00;99.90;;;;;;4590720;19;19911;-32
2022/07/11 04:25:23;;;;;;;;;;;19.90;99.90;;;;;;4591292;19;19926;-32
2022/07/11 04:26:54;;;;;;;;;;;19.90;99.90;;;;;;4591951;19;19990;-32
2022/07/11 04:28:25;;;;;;;;;;;19.90;99.90;;;;;;4591866;19;20242;-33
2022/07/11 04:29:56;;;;;;;;;;;19.90;99.90;;;;;;4592925;19;19915;-32
2022/07/11 04:31:27;;;;;;;;;;;19.90;99.90;;;;;;4591377;19;19929;-33
2022/07/11 04:32:59;;;;;;;;;;;19.90;99.90;;;;;;4590949;19;19987;-32
2022/07/11 04:34:30;;;;;;;;;;;19.90;99.90;;;;;;4590273;19;19918;-32
2022/07/11 04:36:00;;;;;;;;;;;19.90;99.90;;;;;;4592466;19;20327;-32
2022/07/11 04:37:31;;;;;;;;;;;19.90;99.90;;;;;;4588436;19;20348;-31
2022/07/11 04:39:03;;;;;;;;;;;19.90;99.90;;;;;;4588757;19;20376;-32
2022/07/11 04:40:34;;;;;;;;;;;19.90;99.90;;;;;;4589458;19;19914;-32
2022/07/11 04:42:06;;;;;;;;;;;19.90;99.90;;;;;;4586639;19;19923;-32
2022/07/11 04:43:38;;;;;;;;;;;19.90;99.90;;;;;;4587104;19;19915;-32
2022/07/11 04:45:09;;;;;;;;;;;19.90;99.90;;;;;;4590001;19;19906;-32
2022/07/11 04:46:40;;;;;;;;;;;19.90;99.90;;;;;;4591427;19;19914;-32
2022/07/11 04:48:11;;;;;;;;;;;19.90;99.90;;;;;;4590922;19;19915;-32
2022/07/11 04:49:46;;;;;;;;;;;19.90;99.90;;;;;;4590249;19;20238;-32
2022/07/11 04:51:17;;;;;;;;;;;19.90;99.90;;;;;;4589954;19;19993;-32
2022/07/11 04:52:48;;;;;;;;;;;19.90;99.90;;;;;;4590580;19;20351;-32
2022/07/11 04:54:19;;;;;;;;;;;19.90;99.90;;;;;;4588644;19;19915;-31
2022/07/11 04:55:50;;;;;;;;;;;19.90;99.90;;;;;;4588604;19;19914;-32
2022/07/11 04:57:21;;;;;;;;;;;19.90;99.90;;;;;;4586340;19;19945;-34
2022/07/11 04:58:52;;;;;;;;;;;19.90;99.90;;;;;;4587052;19;19923;-32
2022/07/11 05:00:23;;;;;;;;;;;19.90;99.90;;;;;;4591834;19;19919;-32
2022/07/11 05:01:54;;;;;;;;;;;19.90;99.90;;;;;;4590059;19;19910;-32
2022/07/11 05:03:25;;;;;;;;;;;19.90;99.90;;;;;;4590278;19;19919;-33
2022/07/11 05:04:56;;;;;;;;;;;19.90;99.90;;;;;;4590694;19;20264;-32
2022/07/11 05:06:27;;;;;;;;;;;19.90;99.90;;;;;;4589196;19;19918;-32
2022/07/11 05:07:58;;;;;;;;;;;19.90;99.90;;;;;;4588536;19;19911;-33
2022/07/11 05:09:30;;;;;;;;;;;20.00;99.90;;;;;;4589573;19;19931;-32
2022/07/11 05:11:01;;;;;;;;;;;19.90;99.90;;;;;;4590698;19;20346;-32
2022/07/11 05:12:32;;;;;;;;;;;19.90;99.90;;;;;;4589171;19;19922;-31
2022/07/11 05:14:03;;;;;;;;;;;19.90;99.90;;;;;;4590615;19;19918;-33
2022/07/11 05:15:34;;;;;;;;;;;20.00;99.90;;;;;;4590722;19;19927;-33
2022/07/11 05:17:05;;;;;;;;;;;19.90;99.90;;;;;;4589612;19;20276;-32
2022/07/11 05:18:37;;;;;;;;;;;20.00;99.90;;;;;;4589025;19;19914;-32
2022/07/11 05:20:08;;;;;;;;;;;20.00;99.90;;;;;;4589093;19;19946;-32
2022/07/11 05:21:39;;;;;;;;;;;20.00;99.90;;;;;;4588355;19;19918;-32
2022/07/11 05:23:10;;;;;;;;;;;20.00;99.90;;;;;;4588181;19;19935;-32
2022/07/11 05:24:41;;;;;;;;;;;20.00;99.90;;;;;;4587487;19;19926;-32
2022/07/11 05:26:14;;;;;;;;;;;20.00;99.90;;;;;;4591032;19;20336;-32
2022/07/11 05:27:45;;;;;;;;;;;20.00;99.90;;;;;;4590888;19;19922;-31
2022/07/11 05:29:16;;;;;;;;;;;20.00;99.90;;;;;;4590514;19;20261;-32
2022/07/11 05:30:47;;;;;;;;;;;20.00;99.90;;;;;;4590428;19;19918;-30
2022/07/11 05:32:18;;;;;;;;;;;20.00;99.90;;;;;;4588876;19;19921;-32
2022/07/11 05:33:49;;;;;;;;;;;20.00;99.90;;;;;;4589586;19;19911;-32
2022/07/11 05:35:20;;;;;;;;;;;20.10;99.90;;;;;;4588612;19;19922;-33
2022/07/11 05:36:51;;;;;;;;;;;20.20;99.90;;;;;;4587234;19;20569;-33
2022/07/11 05:38:21;;;;;;;;;;;20.30;99.90;;;;;;4586791;19;19935;-32
2022/07/11 05:39:53;;;;;;;;;;;20.40;99.90;;;;;;4591272;19;20254;-32
2022/07/11 05:41:24;;;;;;;;;;;20.50;99.90;;;;;;4590620;19;19919;-32
2022/07/11 05:42:54;;;;;;;;;;;20.50;99.90;;;;;;4590108;19;20012;-34
2022/07/11 05:44:25;;;;;;;;;;;20.50;99.90;;;;;;4589696;19;19926;-32
2022/07/11 05:45:57;;;;;;;;;;;20.60;99.90;;;;;;4590597;19;19915;-31
2022/07/11 05:47:28;;;;;;;;;;;20.50;99.90;;;;;;4589886;19;19932;-31
2022/07/11 05:48:59;;;;;;;;;;;20.50;99.90;;;;;;4590280;19;19921;-32
2022/07/11 05:50:30;;;;;;;;;;;20.40;99.90;;;;;;4593189;19;20433;-32
2022/07/11 05:52:04;;;;;;;;;;;20.40;99.90;;;;;;4592287;19;19915;-32
2022/07/11 05:53:35;;;;;;;;;;;20.40;99.90;;;;;;4592404;19;19923;-33
2022/07/11 05:55:06;;;;;;;;;;;20.40;99.90;;;;;;4593232;19;20362;-33
2022/07/11 05:56:37;;;;;;;;;;;20.40;99.90;;;;;;4594196;19;19948;-32
2022/07/11 05:58:08;;;;;;;;;;;20.40;99.90;;;;;;4594591;19;19936;-32
2022/07/11 05:59:39;;;;;;;;;;;20.50;99.90;;;;;;4593839;19;19918;-32
2022/07/11 06:01:10;;;;;;;;;;;20.50;99.90;;;;;;4594556;19;19930;-32
2022/07/11 06:02:44;;;;;;;;;;;20.60;99.90;;;;;;4594305;19;19919;-32
2022/07/11 06:04:15;;;;;;;;;;;20.60;99.90;;;;;;4594390;19;19914;-32
2022/07/11 06:05:48;;;;;;;;;;;20.60;99.90;;;;;;4592524;19;19938;-33
2022/07/11 06:09:08;;;;;;;;;;;20.50;99.90;;;;;;4594123;19;20264;-32
2022/07/11 06:10:39;;;;;;;;;;;20.10;99.90;;;;;;4592459;19;19925;-32
2022/07/11 06:12:11;;;;;;;;;;;19.90;99.90;;;;;;4593994;19;20270;-32
2022/07/11 06:13:43;;;;;;;;;;;20.00;99.90;;;;;;4593654;19;19926;-30
2022/07/11 06:15:14;;;;;;;;;;;20.00;99.90;;;;;;4594053;19;20416;-33
2022/07/11 06:16:46;;;;;;;;;;;20.00;99.90;;;;;;4593249;19;19923;-30
2022/07/11 06:18:17;;;;;;;;;;;20.00;99.90;;;;;;4592994;19;19974;-31
2022/07/11 06:19:48;;;;;;;;;;;20.00;99.90;;;;;;4592817;19;20234;-32
2022/07/11 06:21:22;;;;;;;;;;;20.00;99.90;;;;;;4592887;19;20596;-32
2022/07/11 06:22:54;;;;;;;;;;;20.10;99.90;;;;;;4594839;19;19919;-33
2022/07/11 06:24:25;;;;;;;;;;;20.00;99.90;;;;;;4592225;19;20365;-31
2022/07/11 06:25:56;;;;;;;;;;;20.10;99.90;;;;;;4593724;19;19940;-32
2022/07/11 06:27:27;;;;;;;;;;;20.00;99.90;;;;;;4593822;19;19911;-32
2022/07/11 06:28:58;;;;;;;;;;;20.00;99.90;;;;;;4593433;19;19911;-31
2022/07/11 06:30:30;;;;;;;;;;;20.00;99.90;;;;;;4593285;19;19990;-32
2022/07/11 06:32:02;;;;;;;;;;;20.00;99.90;;;;;;4592218;19;19919;-33
2022/07/11 06:33:34;;;;;;;;;;;20.00;99.90;;;;;;4591625;19;20063;-31
2022/07/11 06:35:07;;;;;;;;;;;20.20;99.90;;;;;;4591962;19;19944;-32
2022/07/11 06:36:38;;;;;;;;;;;20.20;99.90;;;;;;4592086;19;19929;-32
2022/07/11 06:38:09;;;;;;;;;;;20.20;99.90;;;;;;4593947;19;19922;-32
2022/07/11 06:39:40;;;;;;;;;;;20.10;99.90;;;;;;4593037;19;19918;-33
2022/07/11 06:41:11;;;;;;;;;;;20.10;99.90;;;;;;4593620;19;19931;-32
2022/07/11 06:42:42;;;;;;;;;;;20.20;99.90;;;;;;4592059;19;19937;-33
2022/07/11 06:44:13;;;;;;;;;;;20.10;99.90;;;;;;4592388;19;20321;-32
2022/07/11 06:45:44;;;;;;;;;;;20.00;99.90;;;;;;4592743;19;19923;-32
2022/07/11 06:47:15;;;;;;;;;;;20.00;99.90;;;;;;4590638;19;19937;-32
2022/07/11 06:48:46;;;;;;;;;;;19.90;99.90;;;;;;4591391;19;19919;-31
2022/07/11 06:50:17;;;;;;;;;;;19.70;99.90;;;;;;4590693;19;19915;-32
2022/07/11 06:51:48;;;;;;;;;;;19.60;99.90;;;;;;4593431;19;19945;-31
2022/07/11 06:53:19;;;;;;;;;;;19.50;99.90;;;;;;4594011;19;19922;-32
2022/07/11 06:54:50;;;;;;;;;;;19.50;99.90;;;;;;4591966;19;19916;-32
2022/07/11 06:56:21;;;;;;;;;;;19.40;99.90;;;;;;4592744;19;19911;-33
2022/07/11 06:57:52;;;;;;;;;;;19.40;99.90;;;;;;4591671;19;19919;-32
2022/07/11 06:59:23;;;;;;;;;;;19.40;99.90;;;;;;4592286;19;19918;-32
2022/07/11 07:00:54;;;;;;;;;;;19.30;99.90;;;;;;4590164;19;19923;-31
2022/07/11 07:02:29;;;;;;;;;;;19.30;99.90;;;;;;4591606;19;19974;-33
2022/07/11 07:04:00;;;;;;;;;;;19.30;99.90;;;;;;4591019;19;19918;-31
2022/07/11 07:05:32;;;;;;;;;;;19.30;99.90;;;;;;4591049;19;19986;-32
2022/07/11 07:07:03;;;;;;;;;;;19.30;99.90;;;;;;4592676;19;19950;-32
2022/07/11 07:08:34;;;;;;;;;;;19.20;99.90;;;;;;4592337;19;19974;-33
2022/07/11 07:10:06;;;;;;;;;;;19.20;99.90;;;;;;4593078;19;19915;-32
2022/07/11 07:11:37;;;;;;;;;;;19.20;99.90;;;;;;4592580;19;19922;-32
2022/07/11 07:13:08;;;;;;;;;;;19.20;99.90;;;;;;4593282;19;20348;-31
2022/07/11 07:14:39;;;;;;;;;;;19.20;99.90;;;;;;4591611;19;19915;-32
2022/07/11 07:16:10;;;;;;;;;;;19.20;99.90;;;;;;4591031;19;19915;-32
2022/07/11 07:17:41;;;;;;;;;;;19.20;99.90;;;;;;4592688;19;19919;-32
2022/07/11 07:19:12;;;;;;;;;;;19.20;99.90;;;;;;4592224;19;20256;-32
2022/07/11 07:20:43;;;;;;;;;;;19.20;99.90;;;;;;4591520;19;19917;-33
2022/07/11 07:22:17;;;;;;;;;;;19.20;99.90;;;;;;4592743;19;19932;-33
2022/07/11 07:23:48;;;;;;;;;;;19.20;99.90;;;;;;4592357;19;19915;-32
2022/07/11 07:25:19;;;;;;;;;;;19.20;99.90;;;;;;4591212;19;19945;-32
2022/07/11 07:26:50;;;;;;;;;;;19.10;99.90;;;;;;4589380;19;20340;-31
2022/07/11 07:28:22;;;;;;;;;;;19.10;99.90;;;;;;4590637;19;19969;-32
2022/07/11 07:29:54;;;;;;;;;;;19.00;99.90;;;;;;4592357;19;20334;-31
2022/07/11 07:31:25;;;;;;;;;;;18.70;99.90;;;;;;4592951;19;19911;-32
2022/07/11 07:32:56;;;;;;;;;;;18.60;99.90;;;;;;4592798;19;19907;-31
2022/07/11 07:34:27;;;;;;;;;;;18.70;99.90;;;;;;4592357;19;19911;-33
2022/07/11 07:35:58;;;;;;;;;;;18.80;99.90;;;;;;4591774;19;19914;-32
2022/07/11 07:37:29;;;;;;;;;;;18.90;99.90;;;;;;4591900;19;19926;-31
2022/07/11 07:39:00;;;;;;;;;;;19.00;99.90;;;;;;4591973;19;19919;-32
2022/07/11 07:40:31;;;;;;;;;;;19.00;99.90;;;;;;4590790;19;19952;-32
2022/07/11 07:42:03;;;;;;;;;;;19.00;99.90;;;;;;4590956;19;19927;-32
2022/07/11 07:43:34;;;;;;;;;;;19.10;99.90;;;;;;4592079;19;19955;-31
2022/07/11 07:45:05;;;;;;;;;;;19.30;99.90;;;;;;4592181;19;19922;-32
2022/07/11 07:46:36;;;;;;;;;;;19.40;99.90;;;;;;4591596;19;19907;-30
2022/07/11 07:48:07;;;;;;;;;;;19.50;99.90;;;;;;4591987;19;19979;-31
2022/07/11 07:49:38;;;;;;;;;;;19.70;99.90;;;;;;4592357;19;19922;-32
2022/07/11 07:51:09;;;;;;;;;;;19.70;99.90;;;;;;4592754;19;19918;-32
2022/07/11 07:52:40;;;;;;;;;;;19.80;99.90;;;;;;4589792;19;19928;-32
2022/07/11 07:54:13;;;;;;;;;;;20.00;99.90;;;;;;4592016;19;20332;-31
2022/07/11 07:55:44;;;;;;;;;;;20.00;99.90;;;;;;4592556;19;19942;-32
2022/07/11 07:57:15;;;;;;;;;;;20.20;99.90;;;;;;4592383;19;19907;-32
2022/07/11 07:58:46;;;;;;;;;;;20.20;99.90;;;;;;4592488;19;19911;-31
2022/07/11 08:02:07;;;;;;;;;;;20.30;99.90;;;;;;4591841;19;19923;-29
2022/07/11 08:03:38;;;;;;;;;;;20.40;99.90;;;;;;4593059;19;19915;-32
2022/07/11 08:05:09;;;;;;;;;;;20.40;99.90;;;;;;4591195;19;19922;-32
2022/07/11 08:06:41;;;;;;;;;;;20.40;99.90;;;;;;4590284;19;20265;-32
2022/07/11 08:08:12;;;;;;;;;;;20.40;99.90;;;;;;4591086;19;19915;-33
2022/07/11 08:09:43;;;;;;;;;;;20.50;99.90;;;;;;4589554;19;19922;-32
2022/07/11 08:11:18;;;;;;;;;;;20.50;99.90;;;;;;4590796;19;19930;-32
2022/07/11 08:12:50;;;;;;;;;;;20.50;99.90;;;;;;4584718;19;20376;-32
2022/07/11 08:14:22;;;;;;;;;;;20.50;99.90;;;;;;4591701;19;19933;-33
2022/07/11 08:15:53;;;;;;;;;;;20.50;99.90;;;;;;4591932;19;19910;-33
2022/07/11 08:17:24;;;;;;;;;;;20.50;99.90;;;;;;4591302;19;20009;-32
2022/07/11 08:18:55;;;;;;;;;;;20.50;99.90;;;;;;4591116;19;20377;-32
2022/07/11 08:20:26;;;;;;;;;;;20.40;99.90;;;;;;4591208;19;19997;-32
2022/07/11 08:21:57;;;;;;;;;;;20.50;99.90;;;;;;4590475;19;19923;-33
2022/07/11 08:23:28;;;;;;;;;;;20.50;99.90;;;;;;4590129;19;19919;-32
2022/07/11 08:24:59;;;;;;;;;;;20.50;99.90;;;;;;4590359;19;19927;-32
2022/07/11 08:26:30;;;;;;;;;;;20.50;99.90;;;;;;4588657;19;19919;-33
2022/07/11 08:28:01;;;;;;;;;;;20.50;99.90;;;;;;4588549;19;20284;-32
2022/07/11 08:31:22;;;;;;;;;;;20.40;99.90;;;;;;4591848;19;19951;-32
2022/07/11 08:32:53;;;;;;;;;;;20.40;99.90;;;;;;4592191;19;19914;-33
2022/07/11 08:34:24;;;;;;;;;;;20.40;99.90;;;;;;4591562;19;20340;-32
2022/07/11 08:35:55;;;;;;;;;;;20.40;99.90;;;;;;4591006;19;19932;-32
2022/07/11 08:37:26;;;;;;;;;;;20.40;99.90;;;;;;4590900;19;19931;-32
2022/07/11 08:38:58;;;;;;;;;;;20.40;99.90;;;;;;4590505;19;19910;-30
2022/07/11 08:40:29;;;;;;;;;;;20.40;99.90;;;;;;4589778;19;19915;-32
2022/07/11 08:42:00;;;;;;;;;;;20.40;99.90;;;;;;4588945;19;20384;-33
2022/07/11 08:43:32;;;;;;;;;;;20.40;99.90;;;;;;4589629;19;20241;-33
2022/07/11 08:45:03;;;;;;;;;;;20.40;99.90;;;;;;4588704;19;19922;-32
2022/07/11 08:46:34;;;;;;;;;;;20.40;99.90;;;;;;4590590;19;19929;-32
2022/07/11 08:48:06;;;;;;;;;;;20.40;99.90;;;;;;4591299;19;19914;-32
2022/07/11 08:49:52;;;;;;;;;;;20.40;99.90;;;;;;4589629;19;19922;-32
2022/07/11 08:51:23;;;;;;;;;;;20.50;99.90;;;;;;4591316;19;19911;-33
2022/07/11 08:52:55;;;;;;;;;;;20.50;99.90;;;;;;4589624;19;19926;-32
2022/07/11 08:54:25;;;;;;;;;;;20.50;99.90;;;;;;4588407;19;19922;-31
2022/07/11 08:55:56;;;;;;;;;;;20.40;99.90;;;;;;4587926;19;19919;-32
2022/07/11 08:57:27;;;;;;;;;;;20.40;99.90;;;;;;4588125;19;19918;-32
2022/07/11 08:59:02;;;;;;;;;;;20.40;99.90;;;;;;4588229;19;20264;-32